Gillett, Arkansas
Current Conditions -  °F | °C
As of 1:53 AM on Thursday 27 Nov 2014 (Local Time) from KPBF Reporting Station
Clear Clear  
Wind Chill: 36°   Ceiling: Unl
Heat Index: 40°   Visibility: 10mi
Dew Point: 27°   Wind: 6mph
Humidity: 60%   Direction: 290°WNW
Pressure: 30.33"   Gusts: NA
Location:  34.12°N, 91.38°W
Report Text: KPBF 270753Z AUTO 29005KT 10SM CLR 04/M03 A3033 RMK AO2 SLP270 T00441028
Loading
Personal Weather Stations






























Interactive Weather Map New forecast layout! Learn more

10-Day Weather Forecast

Advertisements
Track Severe Weather on mobile